Time;durP1;ratioP1;P1;durP2;ratioP2;P2;SDS_P1;SDS_P2;PMS_P1;PMS_P2;Temp;Humidity;BMP_temperature;BMP_pressure;BME280_temperature;BME280_humidity;BME280_pressure;Samples;Min_cycle;Max_cycle;Signal;HPM_P1;HPM_P2
2021/06/21 00:01:34;;;;;;;5.30;1.05;;;22.90;73.00;;;;;;5126698;27;27418;-58
2021/06/21 00:04:19;;;;;;;5.60;1.13;;;22.90;71.70;;;;;;5126629;27;27406;-59
2021/06/21 00:07:03;;;;;;;9.20;1.48;;;22.90;72.10;;;;;;5126552;27;27656;-58
2021/06/21 00:09:48;;;;;;;4.18;1.00;;;22.80;71.90;;;;;;5126730;27;27525;-58
2021/06/21 00:12:33;;;;;;;6.85;1.13;;;22.80;71.80;;;;;;5126531;27;27411;-58
2021/06/21 00:15:22;;;;;;;4.90;1.48;;;22.80;71.60;;;;;;5122412;27;27880;-58
2021/06/21 00:18:07;;;;;;;5.20;1.10;;;22.80;72.20;;;;;;5126749;27;27409;-58
2021/06/21 00:20:53;;;;;;;9.25;1.92;;;22.80;71.90;;;;;;5126489;27;27381;-58
2021/06/21 00:23:37;;;;;;;5.65;1.27;;;22.80;72.20;;;;;;5126369;27;27318;-58
2021/06/21 00:26:22;;;;;;;9.48;1.42;;;22.80;72.30;;;;;;5123269;27;27945;-58
2021/06/21 00:29:06;;;;;;;3.58;1.08;;;22.80;71.80;;;;;;5126415;27;27546;-58
2021/06/21 00:31:51;;;;;;;8.02;1.52;;;22.70;71.40;;;;;;5126559;27;27400;-58
2021/06/21 00:34:35;;;;;;;9.32;1.63;;;22.80;71.50;;;;;;5125975;27;27414;-58
2021/06/21 00:37:20;;;;;;;4.40;1.23;;;22.70;71.90;;;;;;5126485;27;27406;-58
2021/06/21 00:40:06;;;;;;;6.80;1.60;;;22.80;72.90;;;;;;5126060;27;27517;-58
2021/06/21 00:42:51;;;;;;;6.13;1.45;;;22.70;72.60;;;;;;5126343;27;27412;-58
2021/06/21 00:45:35;;;;;;;7.28;1.63;;;22.70;71.80;;;;;;5126316;27;27457;-58
2021/06/21 00:48:20;;;;;;;4.75;1.73;;;22.70;72.50;;;;;;5126128;27;27436;-58
2021/06/21 00:51:04;;;;;;;6.53;1.10;;;22.70;72.20;;;;;;5125892;27;27465;-58
2021/06/21 00:53:49;;;;;;;6.25;1.50;;;22.70;71.80;;;;;;5121892;27;27423;-58
2021/06/21 00:56:34;;;;;;;7.93;1.80;;;22.70;73.20;;;;;;5111050;27;27480;-58
2021/06/21 00:59:22;;;;;;;7.50;1.33;;;22.70;71.80;;;;;;5124950;27;27415;-59
2021/06/21 01:02:06;;;;;;;7.47;2.13;;;22.70;71.80;;;;;;5125383;27;27385;-58
2021/06/21 01:04:51;;;;;;;7.85;1.38;;;22.60;71.80;;;;;;5125166;27;27373;-59
2021/06/21 01:07:37;;;;;;;12.18;2.15;;;22.60;71.50;;;;;;5125956;27;27378;-58
2021/06/21 01:10:25;;;;;;;5.53;1.25;;;22.60;71.70;;;;;;5125293;27;27389;-58
2021/06/21 01:14:07;;;;;;;5.68;1.30;;;22.60;71.70;;;;;;5125885;27;27446;-58
2021/06/21 01:17:01;;;;;;;5.80;1.35;;;22.60;71.90;;;;;;5048508;28;27365;-58
2021/06/21 01:20:30;;;;;;;4.55;1.30;;;22.60;71.80;;;;;;5048988;28;27612;-58
2021/06/21 01:23:15;;;;;;;4.25;1.33;;;22.50;71.60;;;;;;5062530;28;27365;-58
2021/06/21 01:26:08;;;;;;;8.05;1.25;;;22.50;71.80;;;;;;5062808;28;27400;-58
2021/06/21 01:29:10;;;;;;;8.45;1.70;;;22.50;72.40;;;;;;5047775;28;27429;-58
2021/06/21 01:32:06;;;;;;;5.40;1.52;;;22.50;72.50;;;;;;5059527;28;27540;-58
2021/06/21 01:34:51;;;;;;;4.95;1.20;;;22.50;72.00;;;;;;5062586;28;27445;-58
2021/06/21 01:37:36;;;;;;;6.18;1.38;;;22.40;72.30;;;;;;5048615;28;27424;-58
2021/06/21 01:40:21;;;;;;;5.63;1.88;;;22.40;72.20;;;;;;5048224;28;27531;-58
2021/06/21 01:43:06;;;;;;;8.82;1.88;;;22.40;72.00;;;;;;5062550;28;27479;-58
2021/06/21 01:45:50;;;;;;;5.97;1.23;;;22.40;71.90;;;;;;5049294;27;27451;-59
2021/06/21 01:48:41;;;;;;;6.68;1.38;;;22.40;71.80;;;;;;5125243;27;27419;-58
2021/06/21 01:51:27;;;;;;;4.72;1.35;;;22.40;71.70;;;;;;5125542;27;27678;-58
2021/06/21 01:54:12;;;;;;;5.80;1.15;;;22.40;71.90;;;;;;5110314;27;27457;-58
2021/06/21 01:56:58;;;;;;;7.07;1.83;;;22.40;71.70;;;;;;5106936;27;27390;-58
2021/06/21 01:59:43;;;;;;;6.63;1.27;;;22.40;72.10;;;;;;5109928;27;27494;-58
2021/06/21 02:02:28;;;;;;;5.65;1.52;;;22.40;72.10;;;;;;5124967;27;27443;-58
2021/06/21 02:05:13;;;;;;;4.53;1.33;;;22.40;71.60;;;;;;5109707;27;27410;-58
2021/06/21 02:07:58;;;;;;;7.32;1.60;;;22.40;71.50;;;;;;5125119;27;27464;-58
2021/06/21 02:10:51;;;;;;;10.65;1.63;;;22.40;71.80;;;;;;5106526;27;27432;-59
2021/06/21 02:13:36;;;;;;;10.73;1.15;;;22.40;71.90;;;;;;5124384;27;27512;-59
2021/06/21 02:16:22;;;;;;;6.72;1.20;;;22.30;71.50;;;;;;5120486;27;27384;-59
2021/06/21 02:19:06;;;;;;;9.90;1.73;;;22.30;71.50;;;;;;5127033;27;27437;-59
2021/06/21 02:21:51;;;;;;;4.80;1.33;;;22.30;71.60;;;;;;5094937;27;27486;-59
2021/06/21 02:24:36;;;;;;;8.13;1.73;;;22.30;71.80;;;;;;5126298;27;27488;-59
2021/06/21 02:27:21;;;;;;;10.95;2.25;;;22.30;71.70;;;;;;5126117;27;27620;-58
2021/06/21 02:30:13;;;;;;;7.93;1.92;;;22.20;71.80;;;;;;5126674;27;27860;-59
2021/06/21 02:32:58;;;;;;;8.10;1.85;;;22.20;71.50;;;;;;5127630;27;27345;-58
2021/06/21 02:35:46;;;;;;;11.68;2.03;;;22.20;71.80;;;;;;5127698;27;27334;-59
2021/06/21 02:38:31;;;;;;;10.95;1.83;;;22.20;72.10;;;;;;5123544;27;27321;-58
2021/06/21 02:41:16;;;;;;;7.20;1.60;;;22.20;71.90;;;;;;5127510;27;27387;-59
2021/06/21 02:44:00;;;;;;;7.78;1.75;;;22.20;72.80;;;;;;5111991;27;27400;-58
2021/06/21 02:46:45;;;;;;;4.50;1.88;;;22.20;72.60;;;;;;5124177;27;27382;-58
2021/06/21 02:49:30;;;;;;;10.13;2.03;;;22.20;72.40;;;;;;5127001;27;27386;-59
2021/06/21 02:52:22;;;;;;;14.95;2.03;;;22.10;71.80;;;;;;5126863;27;27346;-58
2021/06/21 02:55:17;;;;;;;7.97;1.98;;;22.10;71.70;;;;;;5126402;27;27390;-59
2021/06/21 02:58:09;;;;;;;5.05;1.65;;;22.10;71.70;;;;;;5127341;27;27382;-58
2021/06/21 03:00:54;;;;;;;9.75;2.20;;;22.10;72.10;;;;;;5126959;27;27528;-59
2021/06/21 03:03:41;;;;;;;7.40;1.75;;;22.10;72.00;;;;;;5111745;27;27435;-60
2021/06/21 03:06:26;;;;;;;4.97;1.52;;;22.00;71.80;;;;;;5126068;27;27440;-58
2021/06/21 03:09:11;;;;;;;10.00;2.22;;;22.00;71.90;;;;;;5126108;27;27618;-58
2021/06/21 03:11:56;;;;;;;8.80;1.70;;;22.00;71.60;;;;;;5123500;27;27375;-58
2021/06/21 03:14:46;;;;;;;6.15;1.63;;;22.00;71.70;;;;;;5111575;27;27986;-58
2021/06/21 03:17:32;;;;;;;11.48;1.95;;;22.00;72.40;;;;;;5112178;27;27352;-58
2021/06/21 03:20:19;;;;;;;5.65;1.65;;;22.00;72.90;;;;;;5096433;27;27458;-58
2021/06/21 03:23:04;;;;;;;5.05;1.40;;;21.90;72.10;;;;;;5108414;27;27454;-58
2021/06/21 03:25:53;;;;;;;5.47;1.77;;;21.90;71.90;;;;;;5126512;27;27982;-58
2021/06/21 03:28:37;;;;;;;6.00;1.98;;;21.90;72.30;;;;;;5124821;27;27441;-59
2021/06/21 03:31:23;;;;;;;13.38;2.10;;;21.90;72.00;;;;;;5111511;27;27320;-58
2021/06/21 03:34:07;;;;;;;10.38;2.72;;;21.90;72.10;;;;;;5126454;27;27362;-58
2021/06/21 03:36:52;;;;;;;5.88;1.75;;;21.90;72.10;;;;;;5126374;27;27331;-58
2021/06/21 03:39:36;;;;;;;6.00;2.10;;;21.90;72.50;;;;;;5125751;27;27412;-58
2021/06/21 03:42:21;;;;;;;7.75;1.48;;;21.90;72.30;;;;;;5126310;27;27333;-58
2021/06/21 03:45:09;;;;;;;6.30;1.48;;;21.90;73.30;;;;;;5126228;27;27486;-59
2021/06/21 03:47:54;;;;;;;5.88;1.45;;;21.90;72.30;;;;;;5126125;27;27327;-59
2021/06/21 03:50:39;;;;;;;9.05;1.80;;;21.90;72.80;;;;;;5126068;27;27343;-58
2021/06/21 03:53:25;;;;;;;9.48;2.17;;;21.90;72.60;;;;;;5126246;27;27378;-58
2021/06/21 03:56:10;;;;;;;5.20;1.60;;;21.90;72.40;;;;;;5122997;27;27339;-57
2021/06/21 03:58:55;;;;;;;6.78;1.65;;;21.90;72.70;;;;;;5121763;27;27409;-58
2021/06/21 04:01:39;;;;;;;6.90;1.50;;;21.90;72.80;;;;;;5107393;27;27435;-58
2021/06/21 04:04:25;;;;;;;15.48;2.78;;;21.90;72.60;;;;;;5126059;27;27387;-58
2021/06/21 04:07:10;;;;;;;9.48;1.42;;;21.90;73.50;;;;;;5126261;27;27403;-59
2021/06/21 04:09:54;;;;;;;9.95;1.80;;;21.90;72.90;;;;;;5125845;27;27400;-58
2021/06/21 04:12:39;;;;;;;11.75;1.80;;;21.90;72.80;;;;;;5125668;27;27406;-59
2021/06/21 04:15:28;;;;;;;13.50;2.10;;;21.90;72.90;;;;;;5126201;27;27409;-58
2021/06/21 04:18:15;;;;;;;19.77;4.75;;;21.80;72.80;;;;;;5126003;27;27505;-59
2021/06/21 04:21:00;;;;;;;13.15;4.10;;;21.90;73.50;;;;;;5124987;27;27415;-58
2021/06/21 04:23:45;;;;;;;7.20;2.00;;;21.90;73.40;;;;;;5125095;27;27485;-58
2021/06/21 04:26:29;;;;;;;8.13;2.08;;;21.90;72.90;;;;;;5125886;27;27470;-58
2021/06/21 04:29:14;;;;;;;6.30;2.00;;;21.90;73.40;;;;;;5125654;27;27485;-58
2021/06/21 04:31:59;;;;;;;9.63;1.75;;;21.80;73.10;;;;;;5121612;27;27443;-58
2021/06/21 04:34:43;;;;;;;6.93;1.83;;;21.80;72.90;;;;;;5125543;27;27456;-58
2021/06/21 04:37:28;;;;;;;8.15;1.92;;;21.80;72.80;;;;;;5125820;27;27440;-58
2021/06/21 04:40:14;;;;;;;10.18;1.85;;;21.80;73.10;;;;;;5124061;27;27469;-59
2021/06/21 04:43:03;;;;;;;7.47;1.70;;;21.90;72.90;;;;;;5125379;27;27968;-58
2021/06/21 04:45:47;;;;;;;6.72;1.75;;;21.80;73.10;;;;;;5125562;27;27391;-59
2021/06/21 04:48:32;;;;;;;13.07;2.22;;;21.80;73.30;;;;;;5125295;27;27394;-58
2021/06/21 04:51:20;;;;;;;8.75;1.92;;;21.80;73.60;;;;;;5125282;27;27417;-58
2021/06/21 04:54:05;;;;;;;5.50;1.48;;;21.80;73.10;;;;;;5125642;27;27333;-58
2021/06/21 04:56:50;;;;;;;8.25;1.80;;;21.80;73.00;;;;;;5124628;27;27401;-58
2021/06/21 04:59:35;;;;;;;7.25;2.03;;;21.80;73.00;;;;;;5125037;27;27346;-60
2021/06/21 05:02:19;;;;;;;10.27;2.15;;;21.80;73.00;;;;;;5124257;27;27441;-59
2021/06/21 05:05:05;;;;;;;7.60;1.95;;;21.80;73.60;;;;;;5125009;27;27395;-59
2021/06/21 05:07:51;;;;;;;6.85;1.77;;;21.80;73.30;;;;;;5122634;27;27352;-59
2021/06/21 05:10:36;;;;;;;6.85;2.10;;;21.80;73.40;;;;;;5109373;27;27497;-59
2021/06/21 05:13:21;;;;;;;9.60;2.53;;;21.80;73.40;;;;;;5125113;27;27534;-58
2021/06/21 05:16:06;;;;;;;4.97;1.40;;;21.80;73.40;;;;;;5109526;27;27378;-56
2021/06/21 05:18:50;;;;;;;5.28;1.63;;;21.90;73.40;;;;;;5121762;27;27341;-56
2021/06/21 05:21:36;;;;;;;5.45;1.48;;;21.90;73.50;;;;;;5124840;27;27386;-57
2021/06/21 05:24:21;;;;;;;5.93;1.98;;;21.90;73.50;;;;;;5121636;27;27324;-57
2021/06/21 05:27:06;;;;;;;8.93;2.50;;;21.90;73.70;;;;;;5124086;27;27356;-56
2021/06/21 05:29:50;;;;;;;5.78;1.63;;;21.90;73.70;;;;;;5124425;27;27422;-56
2021/06/21 05:32:36;;;;;;;6.72;2.22;;;21.90;73.80;;;;;;5121662;27;27375;-56
2021/06/21 05:35:21;;;;;;;6.60;1.92;;;21.90;73.70;;;;;;5124838;27;27402;-56
2021/06/21 05:38:06;;;;;;;10.60;1.73;;;21.90;74.00;;;;;;5124785;27;27354;-56
2021/06/21 05:40:50;;;;;;;8.85;1.52;;;21.90;74.10;;;;;;5120351;27;27399;-56
2021/06/21 05:43:35;;;;;;;5.10;1.65;;;21.90;74.10;;;;;;5124558;27;27334;-57
2021/06/21 05:46:20;;;;;;;6.35;1.52;;;22.00;74.30;;;;;;5123914;27;27404;-59
2021/06/21 05:49:04;;;;;;;11.57;2.40;;;22.00;75.20;;;;;;5120966;27;27902;-59
2021/06/21 05:51:49;;;;;;;10.90;1.88;;;22.10;74.50;;;;;;5123934;27;27418;-57
2021/06/21 05:54:34;;;;;;;9.38;1.80;;;22.30;74.20;;;;;;5123491;27;27382;-58
2021/06/21 05:57:19;;;;;;;4.50;1.50;;;22.40;73.10;;;;;;5120338;27;27371;-57
2021/06/21 06:00:04;;;;;;;6.80;1.80;;;22.60;71.90;;;;;;5123395;27;27967;-57
2021/06/21 06:02:51;;;;;;;5.72;1.60;;;22.80;72.10;;;;;;5120907;27;27586;-57
2021/06/21 06:05:36;;;;;;;9.80;1.85;;;22.90;72.00;;;;;;5124014;27;27327;-58
2021/06/21 06:08:21;;;;;;;10.95;1.80;;;23.10;72.10;;;;;;5124882;27;27385;-57
2021/06/21 06:11:06;;;;;;;4.60;1.77;;;23.30;72.10;;;;;;5124902;27;27324;-57
2021/06/21 06:13:50;;;;;;;6.72;1.92;;;23.30;71.70;;;;;;5124335;27;27366;-57
2021/06/21 06:16:34;;;;;;;10.82;2.15;;;23.40;72.00;;;;;;5124849;27;27401;-57
2021/06/21 06:19:19;;;;;;;7.97;2.25;;;23.50;72.00;;;;;;5124724;27;27315;-57
2021/06/21 06:22:04;;;;;;;8.93;2.13;;;23.60;71.80;;;;;;5124859;27;27390;-57
2021/06/21 06:24:49;;;;;;;10.82;1.90;;;23.90;71.90;;;;;;5121235;27;27407;-57
2021/06/21 06:27:34;;;;;;;7.68;1.70;;;24.00;71.00;;;;;;5124072;27;27382;-57
2021/06/21 06:30:19;;;;;;;6.93;1.92;;;24.20;70.90;;;;;;5124260;27;27406;-57
2021/06/21 06:33:04;;;;;;;5.30;1.77;;;24.30;70.50;;;;;;5123756;27;27893;-57
2021/06/21 06:35:50;;;;;;;9.10;1.70;;;24.50;70.80;;;;;;5124775;27;27381;-57
2021/06/21 06:38:34;;;;;;;6.57;1.60;;;24.60;69.30;;;;;;5124518;27;27410;-58
2021/06/21 06:41:19;;;;;;;6.18;1.70;;;24.80;69.10;;;;;;5123934;27;27342;-57
2021/06/21 06:44:04;;;;;;;6.55;1.95;;;24.90;68.80;;;;;;5124361;27;27977;-57
2021/06/21 06:46:50;;;;;;;8.88;2.08;;;25.10;68.50;;;;;;5121043;27;27573;-57
2021/06/21 06:49:35;;;;;;;5.15;2.05;;;25.30;68.60;;;;;;5124180;27;27409;-57
2021/06/21 06:52:22;;;;;;;6.70;1.48;;;25.40;68.00;;;;;;5120615;27;27339;-57
2021/06/21 06:57:51;;;;;;;9.88;1.70;;;25.60;68.00;;;;;;5120951;27;27546;-58
2021/06/21 07:00:36;;;;;;;7.05;1.88;;;25.70;67.90;;;;;;5124291;27;27320;-58
2021/06/21 07:03:21;;;;;;;5.28;1.63;;;25.80;67.80;;;;;;5124681;27;27324;-58
2021/06/21 07:06:05;;;;;;;6.40;1.90;;;25.80;67.90;;;;;;5127621;27;27372;-58
2021/06/21 07:08:50;;;;;;;6.82;1.88;;;26.00;67.20;;;;;;5127471;27;27339;-58
2021/06/21 07:11:37;;;;;;;7.00;1.70;;;26.00;66.10;;;;;;5127662;27;27372;-58
2021/06/21 07:14:22;;;;;;;6.78;1.58;;;26.10;66.50;;;;;;5127490;27;27469;-58
2021/06/21 07:17:06;;;;;;;12.55;1.55;;;26.10;66.20;;;;;;5127618;27;27573;-58
2021/06/21 07:19:51;;;;;;;7.72;1.60;;;26.20;66.10;;;;;;5127465;27;27384;-58
2021/06/21 07:22:36;;;;;;;8.85;1.63;;;26.30;62.40;;;;;;5127303;27;27574;-58
2021/06/21 07:25:21;;;;;;;7.03;1.80;;;26.30;60.60;;;;;;5127742;27;27335;-58
2021/06/21 07:28:05;;;;;;;7.85;1.52;;;26.50;59.10;;;;;;5126759;27;27406;-58
2021/06/21 07:30:50;;;;;;;5.38;1.60;;;26.70;60.60;;;;;;5124202;27;27374;-58
2021/06/21 07:33:35;;;;;;;4.35;2.00;;;26.70;60.80;;;;;;5123515;27;27408;-58
2021/06/21 07:36:20;;;;;;;4.68;1.20;;;26.60;61.40;;;;;;5127570;27;27318;-58
2021/06/21 07:39:06;;;;;;;7.38;1.83;;;26.70;62.10;;;;;;5127231;27;27863;-58
2021/06/21 07:41:51;;;;;;;6.43;1.60;;;26.80;62.80;;;;;;5127108;27;27370;-58
2021/06/21 07:44:35;;;;;;;6.07;1.60;;;26.90;63.30;;;;;;5127144;27;27321;-58
2021/06/21 07:47:20;;;;;;;6.00;1.90;;;27.00;62.00;;;;;;5123745;27;27390;-58
2021/06/21 07:50:05;;;;;;;5.68;1.48;;;27.10;63.10;;;;;;5126669;27;27972;-58
2021/06/21 07:52:50;;;;;;;9.88;2.00;;;27.20;63.50;;;;;;5122833;27;27423;-58
2021/06/21 07:55:35;;;;;;;6.80;1.65;;;27.40;63.30;;;;;;5127212;27;27390;-58
2021/06/21 07:58:20;;;;;;;6.28;1.40;;;27.60;62.20;;;;;;5127192;27;27369;-58
2021/06/21 08:01:07;;;;;;;6.88;1.50;;;27.70;62.30;;;;;;5125950;27;27966;-59
2021/06/21 08:03:59;;;;;;;3.33;1.00;;;27.70;61.60;;;;;;5122966;27;27427;-58
2021/06/21 08:06:48;;;;;;;5.53;1.52;;;27.70;61.10;;;;;;5108911;27;27402;-58
2021/06/21 08:09:38;;;;;;;2.30;0.93;;;27.70;61.60;;;;;;5107906;27;27491;-58
2021/06/21 08:12:27;;;;;;;4.65;1.95;;;27.70;61.70;;;;;;5123557;27;27392;-58
2021/06/21 08:15:21;;;;;;;3.90;1.40;;;27.90;62.50;;;;;;5122719;27;27426;-59
2021/06/21 08:18:31;;;;;;;5.15;1.60;;;28.20;62.00;;;;;;5126431;27;27693;-60
2021/06/21 08:21:24;;;;;;;5.10;1.95;;;28.60;61.50;;;;;;5108336;27;27373;-59
2021/06/21 08:24:16;;;;;;;4.85;1.05;;;28.90;60.40;;;;;;5122327;27;27875;-59
2021/06/21 08:27:07;;;;;;;3.25;1.10;;;29.30;59.10;;;;;;5110573;27;27471;-59
2021/06/21 08:30:33;;;;;;;5.57;1.63;;;29.50;57.20;;;;;;5125439;27;27401;-61
2021/06/21 08:33:25;;;;;;;4.20;2.00;;;29.80;57.10;;;;;;5112474;27;27477;-59
2021/06/21 08:36:16;;;;;;;7.32;2.42;;;30.00;56.50;;;;;;5126482;27;27450;-59
2021/06/21 08:39:16;;;;;;;6.75;2.00;;;30.10;55.30;;;;;;5126175;27;27444;-60
2021/06/21 08:42:54;;;;;;;4.70;1.70;;;30.30;54.60;;;;;;5125437;27;27381;-59
2021/06/21 08:45:45;;;;;;;7.55;2.08;;;30.50;56.40;;;;;;5122790;27;27301;-60
2021/06/21 08:48:33;;;;;;;3.78;1.50;;;30.70;56.30;;;;;;5122592;27;27386;-59
2021/06/21 08:55:26;;;;;;;10.93;1.52;;;31.10;57.00;;;;;;5125995;27;27321;-60
2021/06/21 08:58:23;;;;;;;2.50;1.30;;;31.40;56.10;;;;;;5126162;27;27407;-62
2021/06/21 09:01:10;;;;;;;5.05;1.10;;;31.60;54.80;;;;;;5112264;27;27401;-60
2021/06/21 09:03:59;;;;;;;4.05;1.30;;;31.80;55.20;;;;;;5107793;27;27466;-60
2021/06/21 09:06:47;;;;;;;5.97;1.63;;;32.00;54.80;;;;;;5094092;27;27365;-59
2021/06/21 09:09:35;;;;;;;6.38;1.60;;;32.10;53.30;;;;;;5124811;27;27487;-60
2021/06/21 09:12:29;;;;;;;6.93;2.45;;;32.30;54.00;;;;;;5125216;27;27892;-60
2021/06/21 09:16:11;;;;;;;4.50;1.60;;;32.40;52.80;;;;;;5124904;27;27344;-61
2021/06/21 09:19:19;;;;;;;4.63;1.55;;;32.60;52.80;;;;;;5124872;27;27426;-60
2021/06/21 09:22:44;;;;;;;3.35;1.23;;;32.70;52.80;;;;;;5121862;27;27376;-60
2021/06/21 09:25:35;;;;;;;7.45;1.50;;;32.80;51.20;;;;;;5124614;27;27466;-60
2021/06/21 09:28:51;;;;;;;7.32;1.88;;;32.90;51.30;;;;;;5123933;27;27458;-63
2021/06/21 09:36:35;;;;;;;3.30;1.48;;;33.20;52.10;;;;;;5122066;27;27402;-59
2021/06/21 09:39:33;;;;;;;5.13;1.70;;;33.30;50.90;;;;;;5124644;27;27410;-60
2021/06/21 09:42:28;;;;;;;6.40;2.72;;;33.30;50.00;;;;;;5124544;27;27360;-61
2021/06/21 09:45:19;;;;;;;4.97;1.60;;;33.20;49.30;;;;;;5125274;27;26972;-62
2021/06/21 09:48:31;;;;;;;5.90;1.52;;;32.90;49.40;;;;;;5122153;27;27418;-60
2021/06/21 09:51:28;;;;;;;6.47;1.10;;;32.50;51.00;;;;;;5125155;27;27401;-61
2021/06/21 09:54:48;;;;;;;9.02;1.45;;;32.20;51.10;;;;;;5124461;27;27367;-59
2021/06/21 09:57:37;;;;;;;4.65;1.55;;;32.20;52.30;;;;;;5124471;27;27331;-60
2021/06/21 10:00:43;;;;;;;4.97;1.33;;;32.30;51.80;;;;;;5124571;27;27402;-59
2021/06/21 10:04:10;;;;;;;3.95;1.05;;;32.50;52.10;;;;;;5124599;27;27902;-59
2021/06/21 10:07:38;;;;;;;3.95;1.23;;;32.70;52.60;;;;;;5101726;27;27510;-60
2021/06/21 10:10:27;;;;;;;5.05;1.02;;;32.90;53.10;;;;;;5124962;27;27381;-59
2021/06/21 10:14:01;;;;;;;3.80;1.30;;;33.10;52.80;;;;;;5110270;27;27496;-60
2021/06/21 10:17:00;;;;;;;3.75;1.30;;;33.20;51.40;;;;;;5124287;27;27381;-60
2021/06/21 10:19:51;;;;;;;4.88;1.13;;;33.50;52.10;;;;;;5124353;27;27476;-61
2021/06/21 10:22:42;;;;;;;3.22;1.13;;;33.70;52.20;;;;;;5110447;27;27425;-60
2021/06/21 10:25:39;;;;;;;9.45;1.38;;;33.90;51.80;;;;;;5106723;27;27359;-61
2021/06/21 10:32:34;;;;;;;1.77;0.88;;;34.10;51.40;;;;;;5124038;27;27639;-60
2021/06/21 10:35:24;;;;;;;4.15;1.10;;;34.30;52.30;;;;;;5124882;27;27453;-61
2021/06/21 10:38:15;;;;;;;4.72;1.10;;;34.40;50.80;;;;;;5097507;27;27334;-61
2021/06/21 10:41:07;;;;;;;3.22;0.95;;;34.40;49.70;;;;;;5114041;27;27404;-61
2021/06/21 10:44:12;;;;;;;;;;;;;;;;;;;;;
2021/06/21 10:48:07;;;;;;;4.97;1.65;;;34.30;49.20;;;;;;5127822;27;26913;-61
2021/06/21 10:51:02;;;;;;;2.65;0.93;;;34.30;50.10;;;;;;5127631;27;27464;-61
2021/06/21 10:54:00;;;;;;;2.88;0.98;;;34.30;51.10;;;;;;5110911;27;28074;-62
2021/06/21 11:01:13;;;;;;;3.80;0.90;;;34.60;51.80;;;;;;5120836;27;27446;-61
2021/06/21 11:04:09;;;;;;;1.63;0.80;;;34.80;51.60;;;;;;5109872;27;27439;-61
2021/06/21 11:07:18;;;;;;;6.22;1.10;;;34.90;50.20;;;;;;5127724;27;27845;-62
2021/06/21 11:10:09;;;;;;;2.45;0.88;;;35.00;49.80;;;;;;5127366;27;27480;-62
2021/06/21 11:13:42;;;;;;;1.77;0.90;;;35.00;48.30;;;;;;5127038;27;27320;-61
2021/06/21 11:16:43;;;;;;;2.30;0.90;;;35.10;48.40;;;;;;5126892;27;27422;-61
2021/06/21 11:19:42;;;;;;;2.40;0.80;;;35.10;47.20;;;;;;5127501;27;27426;-62
2021/06/21 11:22:49;;;;;;;1.58;0.80;;;35.00;48.30;;;;;;5102033;27;27465;-61
2021/06/21 11:25:47;;;;;;;2.95;0.88;;;35.00;47.90;;;;;;5124998;27;27647;-61
2021/06/21 11:28:51;;;;;;;3.80;1.00;;;34.90;48.10;;;;;;5125791;27;27423;-61
2021/06/21 11:31:43;;;;;;;4.20;0.90;;;34.90;48.70;;;;;;5109161;27;27427;-60
2021/06/21 11:34:56;;;;;;;3.45;1.10;;;34.90;47.70;;;;;;5098647;27;27395;-62
2021/06/21 11:37:51;;;;;;;3.25;1.95;;;34.80;48.20;;;;;;5123959;27;27419;-63
2021/06/21 11:40:47;;;;;;;1.50;0.80;;;34.80;48.70;;;;;;5113254;27;27324;-60
2021/06/21 11:44:02;;;;;;;4.43;1.67;;;34.80;48.90;;;;;;5127014;27;27426;-60
2021/06/21 11:46:56;;;;;;;7.15;1.20;;;34.80;48.10;;;;;;5109420;27;27396;-61
2021/06/21 11:49:48;;;;;;;2.83;0.77;;;34.70;47.50;;;;;;5125721;27;27422;-62
2021/06/21 11:52:40;;;;;;;2.33;1.10;;;34.60;45.50;;;;;;5095275;27;27461;-63
2021/06/21 11:55:42;;;;;;;0.88;0.70;;;34.50;46.50;;;;;;5126149;27;27398;-62
2021/06/21 11:58:39;;;;;;;4.25;1.05;;;34.40;49.30;;;;;;5126431;27;27324;-61
2021/06/21 12:01:31;;;;;;;2.60;1.00;;;34.50;50.50;;;;;;5126052;27;27356;-61
2021/06/21 12:04:27;;;;;;;1.63;1.10;;;34.50;50.10;;;;;;5126863;27;27456;-61
2021/06/21 12:07:36;;;;;;;3.72;1.05;;;34.50;49.60;;;;;;5112188;27;27360;-60
2021/06/21 12:11:04;;;;;;;4.13;1.02;;;34.50;49.40;;;;;;5126422;27;27435;-60
2021/06/21 12:14:06;;;;;;;4.88;0.82;;;34.50;50.60;;;;;;5126748;27;27410;-61
2021/06/21 12:17:06;;;;;;;2.92;0.90;;;34.50;49.70;;;;;;5122905;27;27339;-61
2021/06/21 12:20:26;;;;;;;5.60;0.98;;;34.40;50.60;;;;;;5126495;27;27425;-61
2021/06/21 12:23:13;;;;;;;2.78;1.10;;;34.40;50.10;;;;;;5125710;27;27407;-60
2021/06/21 12:25:58;;;;;;;5.30;1.33;;;34.30;48.70;;;;;;5126446;27;27484;-60
2021/06/21 12:28:42;;;;;;;2.00;1.60;;;34.20;50.80;;;;;;5124811;27;27608;-60
2021/06/21 12:31:27;;;;;;;2.75;1.33;;;34.20;46.40;;;;;;5126613;27;27480;-60
2021/06/21 12:34:12;;;;;;;1.65;0.77;;;34.00;46.30;;;;;;5126330;27;27481;-60
2021/06/21 12:36:58;;;;;;;3.63;1.00;;;33.90;45.70;;;;;;5126234;27;27496;-60
2021/06/21 12:39:44;;;;;;;2.50;0.90;;;33.80;44.70;;;;;;5111291;27;27515;-60
2021/06/21 12:42:31;;;;;;;3.47;1.30;;;33.70;48.40;;;;;;5126392;27;27440;-60
2021/06/21 12:45:24;;;;;;;2.95;1.10;;;33.70;50.70;;;;;;5122001;27;27472;-60
2021/06/21 12:48:09;;;;;;;1.65;0.88;;;33.70;50.00;;;;;;5126120;27;27492;-60
2021/06/21 12:50:56;;;;;;;1.58;0.95;;;33.60;49.20;;;;;;5122288;27;27456;-60
2021/06/21 12:53:43;;;;;;;1.65;0.88;;;33.60;52.20;;;;;;5126210;27;27872;-60
2021/06/21 12:56:34;;;;;;;1.95;0.80;;;33.60;51.40;;;;;;5125076;27;27396;-60
2021/06/21 12:59:39;;;;;;;1.55;0.98;;;33.70;51.20;;;;;;5125966;27;27405;-61
2021/06/21 13:02:24;;;;;;;4.47;1.30;;;33.70;53.00;;;;;;5125770;27;27391;-60
2021/06/21 13:05:11;;;;;;;2.85;0.80;;;33.80;53.40;;;;;;5125751;27;28011;-60
2021/06/21 13:07:56;;;;;;;3.13;0.90;;;33.90;53.20;;;;;;5125792;27;27508;-60
2021/06/21 13:10:41;;;;;;;5.25;1.02;;;33.90;52.40;;;;;;5125713;27;27463;-60
2021/06/21 13:13:40;;;;;;;3.60;0.80;;;34.00;51.80;;;;;;5125919;27;27420;-60
2021/06/21 13:16:29;;;;;;;1.83;0.80;;;33.90;50.00;;;;;;5124640;27;27533;-60
2021/06/21 13:19:15;;;;;;;2.08;0.90;;;33.90;50.70;;;;;;5125534;27;27478;-60
2021/06/21 13:22:00;;;;;;;1.85;0.80;;;33.90;52.30;;;;;;5125547;27;27425;-60
2021/06/21 13:24:45;;;;;;;1.42;0.77;;;33.90;52.00;;;;;;5124684;27;27485;-60
2021/06/21 13:27:30;;;;;;;3.22;1.20;;;33.90;52.10;;;;;;5124784;27;27418;-60
2021/06/21 13:30:31;;;;;;;3.75;1.08;;;34.00;52.90;;;;;;5125497;27;27543;-60
2021/06/21 13:33:17;;;;;;;4.18;1.30;;;34.10;51.30;;;;;;5125054;27;27420;-60
2021/06/21 13:36:03;;;;;;;3.40;1.10;;;34.10;51.10;;;;;;5121310;27;27490;-60
2021/06/21 13:38:50;;;;;;;2.92;0.63;;;34.10;52.00;;;;;;5125559;27;27884;-60
2021/06/21 13:41:35;;;;;;;2.42;0.75;;;34.20;51.90;;;;;;5125529;27;27547;-60
2021/06/21 13:44:19;;;;;;;1.98;0.70;;;34.10;51.30;;;;;;5124345;27;27492;-60
2021/06/21 13:47:05;;;;;;;2.60;0.80;;;34.10;51.50;;;;;;5125161;27;27476;-60
2021/06/21 13:50:03;;;;;;;1.45;0.77;;;34.20;52.80;;;;;;5109876;27;27547;-60
2021/06/21 13:52:48;;;;;;;5.65;0.73;;;34.10;51.20;;;;;;5125370;27;27339;-60
2021/06/21 13:55:39;;;;;;;2.03;0.82;;;34.20;51.60;;;;;;5125071;27;27363;-60
2021/06/21 13:58:32;;;;;;;2.97;1.00;;;34.30;51.70;;;;;;5124894;27;27568;-60
2021/06/21 14:01:20;;;;;;;4.35;1.00;;;34.30;50.00;;;;;;5124948;27;27876;-62
2021/06/21 14:04:05;;;;;;;1.48;0.82;;;34.30;51.00;;;;;;5124915;27;27505;-62
2021/06/21 14:06:50;;;;;;;1.42;0.90;;;34.30;49.50;;;;;;5124975;27;27480;-60
2021/06/21 14:09:35;;;;;;;1.60;0.80;;;34.30;48.70;;;;;;5124486;27;27461;-60
2021/06/21 14:12:20;;;;;;;3.13;0.73;;;34.20;48.50;;;;;;5125331;27;27426;-60
2021/06/21 14:15:06;;;;;;;2.25;1.42;;;34.20;50.00;;;;;;5128769;27;27471;-60
2021/06/21 14:17:51;;;;;;;1.15;0.75;;;34.20;49.50;;;;;;5128795;27;27406;-60
2021/06/21 14:20:37;;;;;;;2.95;0.88;;;34.20;48.10;;;;;;5128633;27;27406;-60
2021/06/21 14:23:22;;;;;;;1.38;0.82;;;34.20;50.10;;;;;;5128318;27;27962;-60
2021/06/21 14:26:08;;;;;;;0.75;0.70;;;34.10;49.80;;;;;;5128303;27;27421;-60
2021/06/21 14:28:52;;;;;;;3.22;0.90;;;34.20;50.70;;;;;;5127749;27;27399;-61
2021/06/21 14:32:14;;;;;;;0.77;0.77;;;34.20;49.20;;;;;;5128551;27;27460;-63
2021/06/21 14:35:14;;;;;;;2.05;0.80;;;34.20;49.30;;;;;;5128173;27;27341;-62
2021/06/21 14:38:03;;;;;;;4.68;1.15;;;34.20;49.10;;;;;;5127788;27;27334;-61
2021/06/21 14:40:51;;;;;;;2.78;1.13;;;34.30;48.80;;;;;;5128150;27;27426;-60
2021/06/21 14:43:38;;;;;;;2.53;1.10;;;34.20;48.40;;;;;;5128378;27;27475;-60
2021/06/21 14:46:26;;;;;;;4.05;1.17;;;34.10;49.50;;;;;;5128314;27;27430;-61
2021/06/21 14:49:15;;;;;;;1.58;0.85;;;33.90;48.40;;;;;;5109780;27;27476;-60
2021/06/21 15:28:11;;;;;;;1.95;1.17;;;33.70;49.20;;;;;;5125565;27;27365;-59
2021/06/21 15:30:56;;;;;;;4.82;1.20;;;33.90;49.30;;;;;;5125644;27;27379;-59
2021/06/21 15:33:40;;;;;;;4.32;1.45;;;33.90;49.20;;;;;;5127547;27;27397;-60
2021/06/21 15:36:25;;;;;;;4.07;1.58;;;34.00;48.20;;;;;;5127351;27;27347;-59
2021/06/21 15:39:10;;;;;;;7.43;1.60;;;33.90;46.30;;;;;;5127499;27;27382;-59
2021/06/21 15:41:55;;;;;;;2.65;1.13;;;33.90;45.40;;;;;;5127273;27;27346;-59
2021/06/21 15:44:40;;;;;;;3.50;0.95;;;33.80;48.10;;;;;;5127082;27;27390;-59